createdAt,value
2022-08-18T00:02:02.819Z,7.32
2022-08-18T00:04:35.391Z,6.95
2022-08-18T00:07:03.504Z,7.35
2022-08-18T00:09:32.490Z,7.10
2022-08-18T00:12:02.218Z,6.88
2022-08-18T00:14:29.035Z,7.43
2022-08-18T00:16:55.483Z,7.35
2022-08-18T00:19:46.923Z,7.63
2022-08-18T00:22:09.351Z,7.13
2022-08-18T00:24:47.956Z,7.53
2022-08-18T00:27:19.574Z,7.75
2022-08-18T00:29:48.812Z,7.32
2022-08-18T00:32:16.830Z,6.75
2022-08-18T00:34:43.255Z,7.78
2022-08-18T00:37:09.801Z,7.20
2022-08-18T00:39:39.835Z,7.45
2022-08-18T00:42:26.931Z,7.43
2022-08-18T00:44:56.858Z,7.63
2022-08-18T00:47:41.004Z,8.07
2022-08-18T00:50:29.795Z,7.50
2022-08-18T00:52:58.883Z,7.53
2022-08-18T00:55:28.047Z,7.95
2022-08-18T00:57:55.671Z,7.63
2022-08-18T01:00:22.286Z,7.70
2022-08-18T01:02:52.513Z,7.20
2022-08-18T01:05:24.261Z,7.32
2022-08-18T01:07:50.919Z,7.45
2022-08-18T01:10:19.407Z,7.60
2022-08-18T01:12:47.633Z,7.65
2022-08-18T01:15:29.000Z,7.35
2022-08-18T01:18:15.924Z,7.88
2022-08-18T01:21:04.212Z,7.22
2022-08-18T01:23:30.869Z,8.32
2022-08-18T01:26:00.263Z,7.72
2022-08-18T01:28:28.081Z,7.70
2022-08-18T01:30:58.145Z,7.80
2022-08-18T01:33:32.486Z,7.53
2022-08-18T01:36:00.501Z,7.72
2022-08-18T01:38:26.943Z,7.60
2022-08-18T01:41:21.871Z,8.25
2022-08-18T01:43:40.913Z,8.35
2022-08-18T01:46:07.306Z,7.97
2022-08-18T01:48:34.399Z,8.07
2022-08-18T01:51:01.338Z,7.55
2022-08-18T01:53:29.029Z,8.10
2022-08-18T01:55:55.918Z,8.50
2022-08-18T01:58:31.436Z,7.50
2022-08-18T02:01:01.614Z,8.40
2022-08-18T02:03:32.371Z,7.97
2022-08-18T02:06:00.525Z,8.27
2022-08-18T02:08:28.176Z,7.75
2022-08-18T02:10:55.472Z,8.30
2022-08-18T02:13:21.854Z,8.43
2022-08-18T02:15:48.227Z,8.45
2022-08-18T02:18:32.497Z,8.07
2022-08-18T02:21:10.000Z,8.90
2022-08-18T02:23:36.856Z,8.38
2022-08-18T02:26:10.416Z,7.60
2022-08-18T02:28:37.137Z,8.52
2022-08-18T02:31:07.827Z,9.48
2022-08-18T02:33:38.193Z,9.40
2022-08-18T02:36:04.659Z,8.27
2022-08-18T02:38:31.048Z,8.43
2022-08-18T02:41:02.125Z,8.98
2022-08-18T02:43:28.917Z,8.43
2022-08-18T02:45:55.304Z,8.95
2022-08-18T02:48:37.124Z,8.90
2022-08-18T02:51:08.903Z,8.82
2022-08-18T02:53:35.984Z,8.95
2022-08-18T02:56:18.412Z,8.70
2022-08-18T02:59:06.344Z,9.20
2022-08-18T03:01:38.293Z,9.25
2022-08-18T03:04:06.582Z,9.60
2022-08-18T03:06:33.795Z,9.52
2022-08-18T03:09:00.170Z,8.82
2022-08-18T03:11:27.657Z,8.75
2022-08-18T03:13:54.564Z,10.00
2022-08-18T03:19:04.876Z,9.48
2022-08-18T03:21:32.116Z,9.32
2022-08-18T03:24:01.469Z,9.63
2022-08-18T03:26:29.847Z,9.52
2022-08-18T03:28:58.068Z,9.75
2022-08-18T03:31:25.325Z,9.35
2022-08-18T03:33:55.443Z,9.33
2022-08-18T03:36:27.130Z,9.73
2022-08-18T03:38:54.222Z,10.27
2022-08-18T03:41:58.001Z,10.82
2022-08-18T03:44:10.215Z,10.73
2022-08-18T03:46:36.663Z,10.57
2022-08-18T03:49:03.360Z,10.52
2022-08-18T03:51:45.002Z,10.57
2022-08-18T03:54:13.765Z,10.38
2022-08-18T03:56:41.483Z,10.57
2022-08-18T03:59:10.646Z,11.00
2022-08-18T04:01:39.518Z,11.27
2022-08-18T04:04:08.050Z,11.18
2022-08-18T04:06:36.401Z,10.90
2022-08-18T04:09:05.219Z,10.68
2022-08-18T04:11:36.532Z,11.10
2022-08-18T04:14:05.531Z,10.40
2022-08-18T04:16:32.445Z,10.45
2022-08-18T04:19:03.141Z,10.80
2022-08-18T04:21:33.923Z,10.15
2022-08-18T04:24:05.334Z,11.35
2022-08-18T04:26:33.134Z,10.68
2022-08-18T04:29:02.591Z,11.05
2022-08-18T04:31:29.806Z,10.68
2022-08-18T04:33:58.481Z,10.27
2022-08-18T04:36:24.961Z,10.63
2022-08-18T04:38:51.496Z,11.02
2022-08-18T04:41:27.635Z,10.90
2022-08-18T04:43:55.324Z,11.38
2022-08-18T04:46:23.941Z,11.98
2022-08-18T04:48:50.904Z,10.85
2022-08-18T04:52:27.044Z,11.65
2022-08-18T04:54:04.476Z,11.80
2022-08-18T04:56:36.850Z,11.90
2022-08-18T04:59:11.288Z,11.52
2022-08-18T05:01:42.004Z,11.90
2022-08-18T05:04:09.242Z,11.40
2022-08-18T05:06:35.918Z,10.48
2022-08-18T05:09:04.182Z,11.05
2022-08-18T05:11:33.546Z,11.88
2022-08-18T05:14:00.911Z,11.30
2022-08-18T05:16:31.965Z,11.75
2022-08-18T05:19:03.324Z,11.77
2022-08-18T05:21:33.812Z,11.45
2022-08-18T05:24:04.572Z,11.68
2022-08-18T05:26:32.091Z,11.57
2022-08-18T05:29:04.214Z,11.27
2022-08-18T05:31:45.398Z,11.40
2022-08-18T05:34:11.802Z,11.52
2022-08-18T05:36:50.934Z,11.60
2022-08-18T05:39:26.381Z,11.68
2022-08-18T05:41:55.527Z,11.27
2022-08-18T05:44:24.713Z,11.38
2022-08-18T05:47:04.791Z,11.60
2022-08-18T05:49:31.381Z,12.17
2022-08-18T05:52:00.970Z,11.80
2022-08-18T05:54:48.194Z,11.90
2022-08-18T05:57:18.545Z,11.95
2022-08-18T05:59:45.492Z,11.57
2022-08-18T06:02:30.363Z,11.27
2022-08-18T06:04:59.388Z,11.82
2022-08-18T06:07:33.554Z,11.32
2022-08-18T06:10:00.488Z,11.48
2022-08-18T06:12:29.147Z,11.65
2022-08-18T06:15:06.001Z,11.45
2022-08-18T06:17:41.936Z,11.55
2022-08-18T06:20:30.180Z,12.07
2022-08-18T06:23:01.936Z,11.23
2022-08-18T06:25:47.053Z,9.82
2022-08-18T06:28:15.815Z,10.52
2022-08-18T06:30:42.251Z,10.25
2022-08-18T06:33:12.673Z,10.77
2022-08-18T06:35:45.112Z,11.02
2022-08-18T06:38:40.544Z,10.65
2022-08-18T06:41:40.473Z,10.50
2022-08-18T06:44:16.578Z,10.02
2022-08-18T06:46:55.954Z,11.23
2022-08-18T06:49:22.271Z,10.82
2022-08-18T06:51:48.738Z,10.43
2022-08-18T06:54:21.282Z,10.10
2022-08-18T06:56:49.682Z,10.45
2022-08-18T06:59:23.915Z,10.73
2022-08-18T07:01:52.796Z,10.65
2022-08-18T07:04:39.504Z,11.07
2022-08-18T07:07:17.301Z,11.13
2022-08-18T07:09:44.465Z,10.15
2022-08-18T07:12:11.225Z,11.45
2022-08-18T07:14:45.325Z,10.38
2022-08-18T07:17:22.191Z,12.18
2022-08-18T07:19:58.098Z,10.48
2022-08-18T07:22:30.082Z,10.75
2022-08-18T07:25:05.909Z,10.88
2022-08-18T07:27:44.570Z,10.63
2022-08-18T07:30:25.580Z,10.73
2022-08-18T07:32:56.091Z,10.27
2022-08-18T07:35:25.038Z,10.80
2022-08-18T07:37:56.275Z,10.50
2022-08-18T07:40:35.285Z,10.65
2022-08-18T07:43:06.142Z,10.40
2022-08-18T07:45:42.296Z,10.65
2022-08-18T07:48:37.168Z,10.23
2022-08-18T07:51:08.819Z,10.88
2022-08-18T07:53:41.858Z,10.60
2022-08-18T07:56:32.537Z,10.68
2022-08-18T07:59:06.962Z,10.38
2022-08-18T08:01:41.232Z,10.82
2022-08-18T08:04:25.933Z,10.30
2022-08-18T08:07:20.657Z,10.35
2022-08-18T08:09:59.211Z,10.85
2022-08-18T08:12:31.217Z,10.65
2022-08-18T08:15:26.621Z,10.93
2022-08-18T08:17:59.827Z,10.77
2022-08-18T08:20:32.990Z,10.77
2022-08-18T08:23:05.804Z,11.30
2022-08-18T08:25:50.874Z,10.88
2022-08-18T08:28:23.268Z,10.80
2022-08-18T08:30:49.642Z,11.18
2022-08-18T08:33:23.311Z,10.27
2022-08-18T08:36:04.617Z,11.15
2022-08-18T08:38:42.717Z,11.00
2022-08-18T08:41:14.028Z,11.03
2022-08-18T08:43:42.605Z,10.65
2022-08-18T08:46:11.678Z,10.05
2022-08-18T08:48:50.381Z,11.00
2022-08-18T08:51:16.743Z,10.15
2022-08-18T08:53:49.918Z,11.02
2022-08-18T08:56:19.212Z,10.77
2022-08-18T08:58:45.596Z,10.20
2022-08-18T09:01:27.050Z,10.45
2022-08-18T09:03:57.738Z,10.32
2022-08-18T09:06:45.255Z,10.27
2022-08-18T09:09:45.055Z,10.25
2022-08-18T09:12:29.930Z,9.90
2022-08-18T09:15:04.990Z,9.98
2022-08-18T09:17:50.904Z,10.10
2022-08-18T09:20:28.057Z,9.40
2022-08-18T09:22:58.447Z,8.90
2022-08-18T09:25:30.879Z,9.13
2022-08-18T09:28:29.821Z,9.70
2022-08-18T09:31:02.417Z,9.45
2022-08-18T09:33:32.064Z,9.50
2022-08-18T09:36:10.637Z,8.77
2022-08-18T09:38:57.597Z,9.20
2022-08-18T09:41:31.818Z,9.18
2022-08-18T09:46:57.678Z,8.50
2022-08-18T09:49:27.037Z,9.02
2022-08-18T09:51:53.472Z,8.77
2022-08-18T09:54:25.107Z,8.68
2022-08-18T09:56:54.235Z,7.85
2022-08-18T09:59:34.899Z,8.57
2022-08-18T10:02:03.475Z,8.63
2022-08-18T10:04:32.765Z,8.57
2022-08-18T10:07:18.274Z,8.60
2022-08-18T10:09:54.894Z,8.55
2022-08-18T10:12:30.964Z,9.02
2022-08-18T10:14:57.482Z,9.25
2022-08-18T10:17:37.913Z,9.23
2022-08-18T10:20:27.313Z,8.50
2022-08-18T10:22:54.563Z,9.23
2022-08-18T10:25:32.727Z,9.65
2022-08-18T10:27:59.129Z,8.65
2022-08-18T10:30:36.451Z,9.73
2022-08-18T10:33:40.388Z,8.90
2022-08-18T10:36:06.950Z,9.35
2022-08-18T10:38:46.165Z,8.85
2022-08-18T10:41:24.188Z,8.82
2022-08-18T10:46:42.540Z,8.05
2022-08-18T10:49:13.548Z,8.90
2022-08-18T10:51:59.780Z,8.10
2022-08-18T10:54:51.100Z,7.53
2022-08-18T10:57:28.322Z,7.40
2022-08-18T10:59:55.853Z,7.45
2022-08-18T11:02:40.874Z,7.35
2022-08-18T11:05:08.240Z,7.75
2022-08-18T11:07:35.856Z,7.93
2022-08-18T11:10:34.701Z,7.10
2022-08-18T11:13:14.968Z,6.97
2022-08-18T11:16:00.350Z,7.45
2022-08-18T11:18:43.262Z,7.57
2022-08-18T11:21:22.516Z,7.47
2022-08-18T11:24:23.155Z,7.43
2022-08-18T11:26:53.759Z,7.10
2022-08-18T11:29:26.977Z,6.47
2022-08-18T11:31:59.638Z,6.70
2022-08-18T11:34:31.946Z,6.93
2022-08-18T11:36:59.611Z,6.40
2022-08-18T11:39:37.598Z,6.30
2022-08-18T11:42:08.299Z,6.00
2022-08-18T11:44:42.143Z,6.28
2022-08-18T11:47:13.738Z,5.93
2022-08-18T11:49:45.614Z,6.07
2022-08-18T11:52:19.865Z,6.45
2022-08-18T11:55:00.285Z,6.13
2022-08-18T11:57:31.714Z,6.28
2022-08-18T12:00:00.568Z,6.05
2022-08-18T12:02:27.586Z,5.60
2022-08-18T12:05:03.113Z,5.00
2022-08-18T12:07:35.518Z,5.30
2022-08-18T12:10:19.855Z,5.00
2022-08-18T12:12:50.019Z,4.50
2022-08-18T12:18:04.796Z,5.82
2022-08-18T12:20:31.195Z,7.10
2022-08-18T12:22:57.876Z,6.80
2022-08-18T12:25:25.611Z,7.13
2022-08-18T12:27:52.971Z,6.80
2022-08-18T12:30:20.009Z,6.97
2022-08-18T12:32:49.634Z,6.88
2022-08-18T12:38:13.017Z,7.05
2022-08-18T12:40:40.814Z,6.72
2022-08-18T12:43:07.560Z,6.00
2022-08-18T12:45:34.104Z,7.05
2022-08-18T12:48:02.553Z,7.13
2022-08-18T12:50:34.163Z,6.50
2022-08-18T12:53:04.419Z,7.32
2022-08-18T12:55:33.949Z,7.20
2022-08-18T12:58:02.016Z,7.03
2022-08-18T13:00:29.398Z,6.63
2022-08-18T13:02:56.596Z,6.32
2022-08-18T13:05:26.381Z,6.10
2022-08-18T13:07:58.024Z,6.35
2022-08-18T13:10:42.822Z,5.38
2022-08-18T13:13:10.912Z,5.57
2022-08-18T13:15:37.431Z,5.20
2022-08-18T13:18:04.275Z,6.07
2022-08-18T13:20:30.622Z,4.93
2022-08-18T13:22:57.144Z,4.72
2022-08-18T13:25:32.462Z,4.65
2022-08-18T13:28:05.786Z,4.50
2022-08-18T13:30:32.803Z,4.53
2022-08-18T13:33:02.558Z,4.93
2022-08-18T13:35:38.020Z,4.40
2022-08-18T13:38:14.612Z,5.07
2022-08-18T13:40:47.045Z,4.82
2022-08-18T13:43:14.727Z,4.10
2022-08-18T13:45:44.394Z,4.57
2022-08-18T13:48:11.440Z,4.50
2022-08-18T13:50:40.302Z,4.20
2022-08-18T13:53:15.506Z,4.43
2022-08-18T13:56:20.280Z,4.50
2022-08-18T13:58:53.468Z,4.28
2022-08-18T14:01:44.528Z,4.35
2022-08-18T14:04:12.768Z,4.95
2022-08-18T14:06:51.200Z,5.25
2022-08-18T14:09:27.819Z,5.43
2022-08-18T14:12:26.997Z,4.88
2022-08-18T14:14:56.957Z,5.30
2022-08-18T14:17:24.446Z,4.85
2022-08-18T14:20:15.244Z,5.63
2022-08-18T14:23:09.747Z,6.97
2022-08-18T14:25:54.999Z,5.63
2022-08-18T14:28:25.428Z,6.68
2022-08-18T14:30:54.399Z,5.75
2022-08-18T14:33:34.107Z,5.78
2022-08-18T14:36:05.026Z,6.10
2022-08-18T14:38:33.802Z,5.63
2022-08-18T14:41:02.332Z,5.85
2022-08-18T14:43:28.729Z,6.20
2022-08-18T14:48:44.808Z,6.10
2022-08-18T14:51:14.161Z,5.32
2022-08-18T14:53:41.241Z,5.00
2022-08-18T14:56:38.779Z,5.55
2022-08-18T14:59:07.978Z,5.45
2022-08-18T15:01:35.761Z,5.90
2022-08-18T15:04:19.224Z,5.78
2022-08-18T15:06:55.682Z,5.68
2022-08-18T15:09:26.744Z,5.30
2022-08-18T15:11:55.882Z,5.15
2022-08-18T15:14:32.588Z,5.70
2022-08-18T15:17:03.886Z,6.17
2022-08-18T15:19:58.492Z,5.28
2022-08-18T15:22:45.183Z,5.18
2022-08-18T15:25:30.255Z,5.45
2022-08-18T15:27:57.571Z,4.95
2022-08-18T15:30:28.597Z,5.45
2022-08-18T15:32:55.421Z,5.50
2022-08-18T15:35:21.968Z,5.57
2022-08-18T15:37:51.442Z,5.90
2022-08-18T15:40:31.257Z,9.47
2022-08-18T15:43:06.819Z,5.90
2022-08-18T15:45:43.317Z,6.10
2022-08-18T15:48:23.057Z,5.90
2022-08-18T15:50:51.236Z,6.00
2022-08-18T15:53:23.304Z,5.63
2022-08-18T15:55:50.364Z,5.78
2022-08-18T15:58:22.125Z,5.50
2022-08-18T16:00:50.703Z,5.13
2022-08-18T16:03:17.715Z,5.97
2022-08-18T16:05:48.686Z,5.93
2022-08-18T16:08:18.179Z,5.47
2022-08-18T16:10:44.874Z,6.78
2022-08-18T16:13:11.440Z,5.78
2022-08-18T16:15:39.561Z,5.45
2022-08-18T16:18:07.111Z,5.45
2022-08-18T16:20:34.161Z,4.95
2022-08-18T16:23:00.679Z,5.97
2022-08-18T16:25:27.450Z,5.40
2022-08-18T16:27:54.874Z,5.55
2022-08-18T16:30:25.617Z,5.32
2022-08-18T16:32:52.248Z,5.10
2022-08-18T16:35:19.247Z,5.20
2022-08-18T16:37:46.752Z,4.65
2022-08-18T16:40:17.270Z,4.97
2022-08-18T16:42:44.140Z,5.90
2022-08-18T16:45:10.753Z,6.10
2022-08-18T16:47:40.578Z,5.35
2022-08-18T16:50:12.100Z,6.25
2022-08-18T16:52:38.692Z,6.13
2022-08-18T16:55:05.566Z,5.85
2022-08-18T16:57:53.395Z,6.43
2022-08-18T17:00:41.058Z,5.90
2022-08-18T17:03:26.390Z,6.60
2022-08-18T17:06:03.854Z,5.70
2022-08-18T17:08:34.018Z,6.15
2022-08-18T17:11:01.331Z,5.60
2022-08-18T17:13:27.951Z,6.07
2022-08-18T17:15:54.548Z,6.25
2022-08-18T17:18:21.093Z,5.78
2022-08-18T17:20:47.468Z,6.35
2022-08-18T17:23:13.905Z,6.43
2022-08-18T17:25:40.397Z,6.30
2022-08-18T17:28:10.042Z,6.38
2022-08-18T17:30:42.048Z,6.47
2022-08-18T17:33:12.191Z,6.80
2022-08-18T17:35:43.242Z,7.15
2022-08-18T17:38:30.451Z,7.05
2022-08-18T17:40:57.905Z,7.70
2022-08-18T17:43:25.167Z,6.47
2022-08-18T17:46:00.308Z,6.50
2022-08-18T17:48:36.342Z,7.07
2022-08-18T17:51:25.267Z,7.43
2022-08-18T17:53:51.644Z,7.43
2022-08-18T17:56:22.728Z,6.78
2022-08-18T17:59:07.151Z,6.75
2022-08-18T18:02:28.424Z,7.68
2022-08-18T18:05:00.866Z,6.88
2022-08-18T18:07:32.774Z,6.65
2022-08-18T18:10:14.262Z,6.90
2022-08-18T18:12:40.740Z,7.07
2022-08-18T18:15:09.307Z,6.55
2022-08-18T18:17:40.092Z,6.38
2022-08-18T18:22:32.944Z,6.90
2022-08-18T18:25:03.648Z,6.75
2022-08-18T18:27:40.632Z,6.25
2022-08-18T18:30:07.170Z,6.05
2022-08-18T18:32:38.109Z,6.72
2022-08-18T18:35:16.777Z,6.38
2022-08-18T18:37:48.299Z,7.25
2022-08-18T18:40:23.759Z,7.40
2022-08-18T18:42:50.654Z,7.05
2022-08-18T18:45:22.347Z,6.80
2022-08-18T18:48:38.685Z,7.97
2022-08-18T18:51:10.883Z,7.38
2022-08-18T18:54:06.301Z,7.10
2022-08-18T18:56:38.313Z,7.38
2022-08-18T18:59:12.539Z,8.15
2022-08-18T19:01:43.988Z,7.63
2022-08-18T19:04:16.035Z,7.30
2022-08-18T19:06:56.574Z,7.55
2022-08-18T19:09:25.295Z,7.43
2022-08-18T19:11:59.367Z,7.10
2022-08-18T19:15:00.171Z,7.70
2022-08-18T19:17:37.538Z,6.85
2022-08-18T19:20:07.215Z,7.07
2022-08-18T19:22:42.700Z,7.28
2022-08-18T19:25:13.284Z,9.27
2022-08-18T19:27:46.067Z,7.15
2022-08-18T19:30:13.978Z,7.55
2022-08-18T19:32:45.921Z,6.47
2022-08-18T19:35:19.534Z,7.30
2022-08-18T19:37:59.387Z,7.55
2022-08-18T19:40:31.941Z,7.47
2022-08-18T19:43:17.437Z,6.80
2022-08-18T19:45:43.833Z,7.25
2022-08-18T19:48:29.760Z,6.93
2022-08-18T19:51:06.350Z,7.05
2022-08-18T19:53:58.521Z,6.70
2022-08-18T19:56:27.916Z,6.55
2022-08-18T19:59:21.399Z,6.90
2022-08-18T20:01:52.977Z,6.97
2022-08-18T20:04:34.825Z,6.35
2022-08-18T20:07:21.294Z,6.70
2022-08-18T20:10:06.319Z,7.30
2022-08-18T20:12:46.403Z,6.85
2022-08-18T20:15:16.738Z,7.10
2022-08-18T20:17:58.491Z,6.82
2022-08-18T20:20:25.353Z,6.78
2022-08-18T20:22:57.026Z,6.93
2022-08-18T20:25:23.858Z,7.15
2022-08-18T20:28:13.051Z,7.07
2022-08-18T20:30:39.434Z,7.70
2022-08-18T20:33:15.023Z,8.00
2022-08-18T20:36:00.912Z,7.45
2022-08-18T20:38:31.708Z,7.95
2022-08-18T20:40:59.908Z,8.52
2022-08-18T20:43:33.707Z,7.65
2022-08-18T20:46:17.626Z,8.68
2022-08-18T20:48:50.577Z,8.82
2022-08-18T20:51:22.183Z,8.50
2022-08-18T20:53:54.939Z,9.60
2022-08-18T20:56:43.273Z,9.27
2022-08-18T20:59:17.817Z,10.02
2022-08-18T21:01:55.597Z,10.85
2022-08-18T21:04:41.229Z,11.00
2022-08-18T21:07:15.772Z,10.95
2022-08-18T21:09:48.197Z,10.80
2022-08-18T21:12:19.992Z,11.55
2022-08-18T21:14:50.774Z,12.18
2022-08-18T21:17:17.693Z,11.13
2022-08-18T21:19:44.071Z,10.80
2022-08-18T21:22:11.299Z,11.50
2022-08-18T21:24:38.890Z,11.18
2022-08-18T21:27:21.076Z,12.35
2022-08-18T21:29:49.498Z,11.55
2022-08-18T21:32:18.288Z,15.10
2022-08-18T21:34:45.357Z,11.02
2022-08-18T21:37:12.336Z,12.50
2022-08-18T21:39:48.025Z,12.68
2022-08-18T21:42:19.459Z,12.75
2022-08-18T21:44:46.854Z,13.63
2022-08-18T21:47:33.206Z,13.23
2022-08-18T21:50:00.880Z,12.85
2022-08-18T21:52:28.474Z,14.05
2022-08-18T21:54:57.542Z,14.40
2022-08-18T21:57:25.313Z,13.60
2022-08-18T22:00:10.586Z,13.50
2022-08-18T22:02:41.809Z,13.60
2022-08-18T22:05:09.441Z,13.88
2022-08-18T22:07:45.856Z,14.45
2022-08-18T22:10:45.846Z,15.00
2022-08-18T22:13:44.336Z,14.43
2022-08-18T22:16:28.490Z,14.60
2022-08-18T22:19:08.943Z,16.73
2022-08-18T22:21:40.926Z,16.42
2022-08-18T22:24:20.105Z,14.27
2022-08-18T22:26:48.537Z,16.20
2022-08-18T22:29:14.886Z,15.95
2022-08-18T22:31:43.339Z,16.90
2022-08-18T22:34:27.735Z,16.08
2022-08-18T22:36:59.813Z,15.80
2022-08-18T22:39:35.204Z,15.10
2022-08-18T22:42:02.410Z,17.92
2022-08-18T22:44:28.990Z,14.77
2022-08-18T22:46:57.323Z,15.23
2022-08-18T22:49:24.242Z,16.02
2022-08-18T22:51:52.300Z,15.85
2022-08-18T22:54:19.479Z,16.67
2022-08-18T22:56:53.659Z,15.63
2022-08-18T22:59:23.153Z,16.75
2022-08-18T23:01:50.772Z,17.63
2022-08-18T23:04:18.077Z,17.55
2022-08-18T23:06:52.459Z,16.10
2022-08-18T23:09:23.771Z,14.45
2022-08-18T23:11:50.946Z,16.13
2022-08-18T23:14:17.371Z,17.02
2022-08-18T23:16:46.901Z,16.15
2022-08-18T23:19:14.220Z,17.80
2022-08-18T23:21:41.088Z,18.02
2022-08-18T23:24:09.293Z,15.52
2022-08-18T23:26:36.248Z,17.77
2022-08-18T23:29:04.119Z,15.05
2022-08-18T23:31:31.815Z,14.90
2022-08-18T23:33:58.871Z,11.93
2022-08-18T23:36:25.268Z,12.48
2022-08-18T23:38:53.948Z,13.75
2022-08-18T23:41:21.679Z,14.02
2022-08-18T23:43:48.878Z,15.18
2022-08-18T23:46:18.915Z,14.68
2022-08-18T23:48:49.628Z,14.30
2022-08-18T23:51:29.653Z,14.75
2022-08-18T23:53:58.820Z,14.93
2022-08-18T23:56:27.457Z,15.32
2022-08-18T23:58:57.111Z,14.30
